Time;durP1;ratioP1;P1;durP2;ratioP2;P2;SDS_P1;SDS_P2;PMS_P1;PMS_P2;Temp;Humidity;BMP_temperature;BMP_pressure;BME280_temperature;BME280_humidity;BME280_pressure;Samples;Min_cycle;Max_cycle;Signal;HPM_P1;HPM_P2
2022/05/21 04:01:48;;;;;;;8.07;6.17;;;12.80;99.90;;;;;;5329209;23;20289;-70
2022/05/21 04:04:15;;;;;;;6.20;5.80;;;12.70;99.90;;;;;;4991106;28;20497;-70
2022/05/21 04:06:41;;;;;;;6.93;6.25;;;12.80;99.90;;;;;;4992262;28;20463;-69
2022/05/21 04:09:09;;;;;;;5.50;5.20;;;12.70;99.90;;;;;;4991452;28;20291;-70
2022/05/21 04:11:36;;;;;;;6.63;6.10;;;12.70;99.90;;;;;;4980109;28;20571;-71
2022/05/21 04:14:03;;;;;;;5.30;5.00;;;12.70;99.90;;;;;;4971564;28;20476;-69
2022/05/21 04:16:30;;;;;;;5.13;4.73;;;12.70;99.90;;;;;;4973074;28;20471;-69
2022/05/21 04:18:58;;;;;;;5.60;5.30;;;12.70;99.90;;;;;;4972686;28;20460;-69
2022/05/21 04:21:26;;;;;;;5.80;5.40;;;12.80;99.90;;;;;;4952875;28;21092;-69
2022/05/21 04:23:53;;;;;;;5.00;4.80;;;12.80;99.90;;;;;;4953618;28;20219;-70
2022/05/21 04:26:19;;;;;;;5.23;4.93;;;12.80;99.90;;;;;;4954604;28;20671;-69
2022/05/21 04:28:46;;;;;;;4.90;4.50;;;12.90;99.90;;;;;;4953103;28;20933;-70
2022/05/21 04:31:13;;;;;;;4.80;4.50;;;12.90;99.90;;;;;;4968446;28;20996;-69
2022/05/21 04:33:39;;;;;;;4.83;4.53;;;13.00;99.90;;;;;;4972247;28;21015;-69
2022/05/21 04:36:19;;;;;;;5.20;4.90;;;13.20;99.90;;;;;;4971588;28;21021;-69
2022/05/21 04:38:46;;;;;;;4.33;4.20;;;13.30;99.90;;;;;;4971282;28;20466;-69
2022/05/21 04:41:13;;;;;;;7.30;5.40;;;13.20;99.90;;;;;;4957619;28;20513;-69
2022/05/21 04:43:40;;;;;;;4.73;4.43;;;13.10;99.90;;;;;;4954152;28;20965;-69
2022/05/21 04:46:07;;;;;;;5.63;5.00;;;13.10;99.90;;;;;;4971265;28;20530;-69
2022/05/21 04:48:34;;;;;;;4.53;4.33;;;13.10;99.90;;;;;;4972106;28;20514;-69
2022/05/21 04:51:02;;;;;;;5.03;4.73;;;13.20;99.90;;;;;;4969142;28;20534;-69
2022/05/21 04:53:30;;;;;;;5.40;5.00;;;13.20;99.90;;;;;;4972153;28;20551;-69
2022/05/21 04:55:57;;;;;;;5.47;5.07;;;13.20;99.90;;;;;;4970458;28;20470;-69
2022/05/21 04:58:24;;;;;;;5.20;4.87;;;13.20;99.90;;;;;;4972350;28;20463;-69
2022/05/21 05:00:50;;;;;;;6.30;5.73;;;13.20;99.90;;;;;;4955308;28;21006;-69
2022/05/21 05:03:18;;;;;;;5.30;4.83;;;13.20;99.90;;;;;;4952498;28;20954;-69
2022/05/21 05:05:46;;;;;;;5.57;5.03;;;13.20;99.90;;;;;;4963673;28;20463;-69
2022/05/21 05:08:15;;;;;;;7.20;5.10;;;13.30;99.90;;;;;;4971911;28;20514;-69
2022/05/21 05:10:44;;;;;;;6.83;6.23;;;13.30;99.90;;;;;;4958599;28;20488;-69
2022/05/21 05:13:12;;;;;;;6.63;6.03;;;13.30;99.90;;;;;;4952710;28;20469;-69
2022/05/21 05:15:39;;;;;;;7.10;6.50;;;13.30;99.90;;;;;;4967205;28;20514;-69
2022/05/21 05:18:08;;;;;;;6.63;6.03;;;13.30;99.90;;;;;;4978882;28;20475;-69
2022/05/21 05:20:35;;;;;;;7.57;6.77;;;13.30;99.90;;;;;;4970282;28;20503;-70
2022/05/21 05:23:02;;;;;;;8.10;7.07;;;13.30;99.90;;;;;;4957586;28;20468;-70
2022/05/21 05:25:29;;;;;;;8.80;8.03;;;13.40;99.90;;;;;;4966634;28;20464;-70
2022/05/21 05:27:57;;;;;;;8.57;7.03;;;13.40;99.90;;;;;;4956284;28;20472;-68
2022/05/21 05:30:24;;;;;;;7.17;6.63;;;13.40;99.90;;;;;;4964516;28;20514;-70
2022/05/21 05:32:51;;;;;;;8.07;7.37;;;13.50;99.90;;;;;;4975470;28;20877;-69
2022/05/21 05:35:19;;;;;;;8.87;7.97;;;13.60;99.90;;;;;;4974674;28;21038;-70
2022/05/21 05:37:46;;;;;;;8.60;7.70;;;13.60;99.90;;;;;;4975880;28;20495;-69
2022/05/21 05:40:15;;;;;;;11.00;8.23;;;13.60;99.90;;;;;;4986491;28;20526;-70
2022/05/21 05:42:42;;;;;;;8.90;8.10;;;13.60;99.90;;;;;;4993640;28;20479;-70
2022/05/21 05:45:13;;;;;;;10.13;9.13;;;13.60;99.90;;;;;;4984694;28;20465;-70
2022/05/21 05:47:40;;;;;;;10.90;9.10;;;13.60;99.90;;;;;;4960279;28;21167;-70
2022/05/21 05:50:08;;;;;;;10.93;9.13;;;13.60;99.90;;;;;;4970089;28;20472;-70
2022/05/21 05:52:35;;;;;;;13.87;9.60;;;13.70;99.90;;;;;;4981570;28;20484;-69
2022/05/21 05:55:02;;;;;;;11.57;10.23;;;13.70;99.90;;;;;;4975668;28;20475;-69
2022/05/21 05:57:29;;;;;;;10.83;9.90;;;13.80;99.90;;;;;;4973034;28;20530;-69
2022/05/21 05:59:55;;;;;;;14.90;11.50;;;13.90;99.90;;;;;;4973084;28;20557;-69
2022/05/21 06:05:12;;;;;;;11.17;10.23;;;13.80;99.90;;;;;;4977261;28;20451;-69
2022/05/21 06:07:44;;;;;;;11.10;10.07;;;13.70;99.90;;;;;;4974682;28;20459;-68
2022/05/21 06:10:12;;;;;;;13.20;11.57;;;13.60;99.90;;;;;;4973542;28;20456;-69
2022/05/21 06:12:39;;;;;;;11.90;10.67;;;13.60;99.90;;;;;;4974635;28;20459;-69
2022/05/21 06:15:06;;;;;;;16.13;11.83;;;13.60;99.90;;;;;;4973510;28;21000;-69
2022/05/21 06:17:34;;;;;;;12.67;10.80;;;13.50;99.90;;;;;;4955919;28;20464;-69
2022/05/21 06:20:01;;;;;;;14.70;11.50;;;13.50;99.90;;;;;;4969977;28;20991;-69
2022/05/21 06:22:28;;;;;;;12.93;11.53;;;13.40;99.90;;;;;;4973962;28;20546;-69
2022/05/21 06:24:54;;;;;;;16.93;12.83;;;13.40;99.90;;;;;;4974273;28;20494;-69
2022/05/21 06:27:21;;;;;;;15.53;11.63;;;13.40;99.90;;;;;;4973514;28;20607;-69
2022/05/21 06:29:48;;;;;;;15.77;12.20;;;13.30;99.90;;;;;;4962811;28;20474;-69
2022/05/21 06:32:14;;;;;;;14.77;12.70;;;13.30;99.90;;;;;;4970747;28;20877;-69
2022/05/21 06:34:43;;;;;;;15.37;13.27;;;13.40;99.90;;;;;;4973450;28;20470;-67
2022/05/21 06:37:12;;;;;;;16.90;13.00;;;13.40;99.90;;;;;;4974628;28;20526;-68
2022/05/21 06:39:40;;;;;;;15.57;13.80;;;13.40;99.90;;;;;;4972481;28;20514;-69
2022/05/21 06:42:08;;;;;;;19.20;13.73;;;13.40;99.90;;;;;;4973935;28;20488;-68
2022/05/21 06:44:35;;;;;;;17.73;14.38;;;13.60;99.90;;;;;;4971279;28;20517;-68
2022/05/21 06:47:01;;;;;;;15.70;13.93;;;13.70;99.90;;;;;;4961474;28;20620;-68
2022/05/21 06:49:28;;;;;;;17.57;14.37;;;13.80;99.90;;;;;;4972962;28;20463;-69
2022/05/21 06:51:58;;;;;;;18.37;15.13;;;14.00;99.90;;;;;;4967522;28;20512;-70
2022/05/21 06:54:25;;;;;;;17.80;12.77;;;14.50;99.90;;;;;;4974228;28;20468;-68
2022/05/21 06:56:53;;;;;;;14.97;12.27;;;15.00;99.90;;;;;;4973197;28;20530;-69
2022/05/21 06:59:19;;;;;;;12.50;11.20;;;15.60;99.90;;;;;;4968220;28;21395;-69
2022/05/21 07:01:46;;;;;;;12.00;10.90;;;16.10;99.90;;;;;;4965147;28;20499;-68
2022/05/21 07:04:14;;;;;;;11.50;10.47;;;16.20;99.90;;;;;;4971411;28;20538;-68
2022/05/21 07:09:27;;;;;;;12.97;10.80;;;15.80;99.90;;;;;;4967502;28;20526;-68
2022/05/21 07:11:54;;;;;;;16.97;10.90;;;15.60;99.90;;;;;;4970040;28;20480;-68
2022/05/21 07:14:21;;;;;;;13.00;11.23;;;15.50;99.90;;;;;;4971904;28;20542;-69
2022/05/21 07:16:48;;;;;;;15.57;11.40;;;15.30;99.90;;;;;;4973067;28;20471;-69
2022/05/21 07:19:15;;;;;;;11.23;10.20;;;15.10;99.90;;;;;;4972722;28;20551;-68
2022/05/21 07:21:42;;;;;;;14.60;12.60;;;15.10;99.90;;;;;;4972364;28;20546;-68
2022/05/21 07:24:09;;;;;;;12.63;11.33;;;15.10;99.90;;;;;;4979464;28;20962;-68
2022/05/21 07:26:37;;;;;;;14.00;10.73;;;15.40;99.90;;;;;;4973920;28;20494;-68
2022/05/21 07:29:04;;;;;;;11.00;9.77;;;16.00;99.90;;;;;;4972776;28;20460;-68
2022/05/21 07:31:30;;;;;;;10.83;9.57;;;16.50;99.90;;;;;;4971785;28;21000;-68
2022/05/21 07:33:57;;;;;;;12.73;10.10;;;16.50;99.90;;;;;;4973485;28;20530;-68
2022/05/21 07:36:25;;;;;;;10.63;9.57;;;16.80;99.90;;;;;;4973333;28;20551;-68
2022/05/21 07:38:51;;;;;;;9.80;8.93;;;17.00;99.90;;;;;;4972550;28;20460;-68
2022/05/21 07:41:18;;;;;;;9.97;8.97;;;17.20;99.90;;;;;;4967174;28;20512;-68
2022/05/21 07:43:46;;;;;;;9.90;9.00;;;17.50;99.90;;;;;;4974367;28;20464;-68
2022/05/21 07:46:13;;;;;;;9.57;8.70;;;18.00;99.90;;;;;;4972265;28;20721;-68
2022/05/21 07:48:39;;;;;;;9.83;9.13;;;17.90;99.90;;;;;;4972479;28;20471;-68
2022/05/21 07:51:08;;;;;;;10.73;9.70;;;17.70;99.90;;;;;;4972035;28;20483;-68
2022/05/21 07:53:37;;;;;;;10.13;9.30;;;17.40;99.90;;;;;;4973137;28;20522;-68
2022/05/21 07:56:04;;;;;;;10.33;9.33;;;17.50;99.90;;;;;;4972741;28;20587;-68
2022/05/21 07:58:32;;;;;;;9.43;8.63;;;17.50;99.90;;;;;;4972417;28;20565;-67
2022/05/21 08:01:00;;;;;;;8.87;8.17;;;17.50;99.90;;;;;;4976144;28;20813;-67
2022/05/21 08:03:28;;;;;;;10.03;9.13;;;17.70;99.90;;;;;;4974401;28;20995;-68
2022/05/21 08:05:55;;;;;;;9.70;8.90;;;17.90;99.90;;;;;;4971915;28;20492;-68
2022/05/21 08:08:22;;;;;;;8.70;8.00;;;17.80;99.90;;;;;;4968523;28;20492;-67
2022/05/21 08:10:50;;;;;;;9.33;7.70;;;17.70;99.90;;;;;;4971621;28;20480;-68
2022/05/21 08:13:17;;;;;;;8.50;7.80;;;17.90;99.90;;;;;;4972080;28;20511;-68
2022/05/21 08:15:45;;;;;;;8.40;7.70;;;18.10;99.90;;;;;;4971017;28;20932;-68
2022/05/21 08:18:13;;;;;;;8.70;8.03;;;18.20;99.90;;;;;;4972164;28;20460;-68
2022/05/21 08:20:41;;;;;;;7.87;7.17;;;17.90;99.90;;;;;;4971757;28;20491;-68
2022/05/21 08:28:43;;;;;;;9.13;7.87;;;17.30;99.90;;;;;;4958872;28;20455;-69
2022/05/21 08:31:10;;;;;;;6.97;6.50;;;17.00;99.90;;;;;;4964810;28;20476;-69
2022/05/21 08:33:38;;;;;;;7.83;7.23;;;17.10;99.90;;;;;;4971789;28;20500;-69
2022/05/21 08:36:05;;;;;;;10.17;7.23;;;17.20;99.90;;;;;;4979025;28;21027;-68
2022/05/21 08:38:31;;;;;;;8.13;7.10;;;17.40;99.90;;;;;;4971661;28;20514;-68
2022/05/21 08:41:03;;;;;;;8.10;7.40;;;17.70;99.90;;;;;;4971158;28;20499;-69
2022/05/21 08:43:38;;;;;;;7.43;6.80;;;17.60;99.90;;;;;;4980000;28;20554;-69
2022/05/21 08:46:08;;;;;;;8.33;7.73;;;17.50;99.90;;;;;;4986202;28;20569;-68
2022/05/21 08:48:36;;;;;;;8.47;5.77;;;17.30;99.90;;;;;;4987862;28;20452;-68
2022/05/21 08:51:11;;;;;;;7.53;6.30;;;17.20;99.90;;;;;;4990121;28;20479;-69
2022/05/21 08:53:47;;;;;;;6.27;5.73;;;17.20;99.90;;;;;;4985896;28;20917;-68
2022/05/21 08:56:14;;;;;;;6.90;6.20;;;17.40;99.90;;;;;;4973679;28;20467;-68
2022/05/21 08:58:45;;;;;;;6.80;6.17;;;17.40;99.90;;;;;;4968010;28;20467;-68
2022/05/21 09:01:12;;;;;;;7.17;6.67;;;17.30;99.90;;;;;;4970042;28;20487;-67
2022/05/21 09:03:39;;;;;;;8.77;8.03;;;16.80;99.90;;;;;;4970579;28;20472;-68
2022/05/21 09:06:13;;;;;;;8.13;7.43;;;16.40;99.90;;;;;;4978249;28;20552;-67
2022/05/21 09:08:48;;;;;;;9.20;8.47;;;16.10;99.90;;;;;;4971976;28;20456;-67
2022/05/21 09:11:19;;;;;;;11.00;8.47;;;16.00;99.90;;;;;;4967054;28;20546;-68
2022/05/21 09:14:04;;;;;;;10.27;8.07;;;16.00;99.90;;;;;;4971251;28;20514;-68
2022/05/21 09:16:55;;;;;;;9.90;7.83;;;15.90;99.90;;;;;;4971288;28;20459;-68
2022/05/21 09:19:23;;;;;;;7.40;6.90;;;15.80;99.90;;;;;;4971294;28;20566;-68
2022/05/21 09:21:59;;;;;;;7.63;7.10;;;15.80;99.90;;;;;;4970938;28;20574;-68
2022/05/21 09:24:39;;;;;;;8.13;7.53;;;15.70;99.90;;;;;;4971722;28;20529;-69
2022/05/21 09:27:21;;;;;;;6.83;6.33;;;15.80;99.90;;;;;;4971439;28;20605;-68
2022/05/21 09:29:48;;;;;;;10.27;5.23;;;15.90;99.90;;;;;;4969040;28;20983;-68
2022/05/21 09:32:19;;;;;;;5.60;5.20;;;16.10;99.90;;;;;;4971385;28;20476;-69
2022/05/21 09:34:58;;;;;;;4.80;4.30;;;16.30;99.90;;;;;;4970016;28;20463;-69
2022/05/21 09:37:29;;;;;;;5.60;3.90;;;16.60;99.90;;;;;;4971299;28;20529;-67
2022/05/21 09:39:56;;;;;;;3.97;3.67;;;16.80;99.90;;;;;;4970388;28;20851;-67
2022/05/21 09:45:26;;;;;;;3.43;3.20;;;17.20;99.90;;;;;;4968975;28;20474;-67
2022/05/21 09:47:54;;;;;;;3.73;3.53;;;17.20;99.90;;;;;;4967469;28;20472;-68
2022/05/21 09:50:24;;;;;;;3.50;3.23;;;17.20;99.90;;;;;;4974669;28;20468;-67
2022/05/21 09:52:53;;;;;;;7.47;2.60;;;17.10;99.90;;;;;;4974213;28;20470;-69
2022/05/21 09:55:23;;;;;;;3.80;3.47;;;17.20;99.90;;;;;;4972244;28;20464;-68
2022/05/21 09:57:50;;;;;;;3.40;3.10;;;17.20;99.90;;;;;;4973036;28;20610;-68
2022/05/21 10:00:24;;;;;;;6.70;2.90;;;17.30;99.90;;;;;;4978051;28;21017;-68
2022/05/21 10:02:54;;;;;;;2.60;2.50;;;17.50;99.90;;;;;;4974026;28;20459;-68
2022/05/21 10:05:25;;;;;;;2.57;2.37;;;17.70;99.90;;;;;;4974284;28;20475;-68
2022/05/21 10:11:02;;;;;;;2.77;2.10;;;18.10;99.90;;;;;;4980747;28;20494;-68
2022/05/21 10:13:35;;;;;;;2.83;2.20;;;18.20;99.90;;;;;;4955807;28;20482;-69
2022/05/21 10:16:14;;;;;;;6.10;2.10;;;18.40;99.90;;;;;;4975748;23;20874;-71
2022/05/21 10:18:48;;;;;;;3.60;2.40;;;18.20;99.90;;;;;;4954238;28;20472;-71
2022/05/21 10:21:25;;;;;;;4.40;2.30;;;18.00;99.90;;;;;;4953773;28;20898;-71
2022/05/21 10:23:57;;;;;;;4.00;1.93;;;17.90;99.90;;;;;;4954741;28;20556;-71
2022/05/21 10:26:42;;;;;;;2.20;2.10;;;17.80;99.90;;;;;;4955212;28;20555;-71
2022/05/21 10:29:29;;;;;;;2.07;1.97;;;17.60;99.90;;;;;;4967174;28;20476;-71
2022/05/21 10:32:06;;;;;;;2.13;1.67;;;17.40;99.90;;;;;;4953724;28;20457;-72
2022/05/21 10:34:44;;;;;;;2.30;2.03;;;17.30;99.90;;;;;;4955428;28;20475;-71
2022/05/21 10:37:24;;;;;;;3.70;1.60;;;17.20;99.90;;;;;;4960021;28;20582;-71
2022/05/21 10:40:09;;;;;;;3.73;2.07;;;17.20;99.90;;;;;;4952272;28;20534;-72
2022/05/21 10:42:50;;;;;;;1.97;1.80;;;17.40;99.90;;;;;;4960265;28;21012;-71
2022/05/21 10:45:25;;;;;;;3.83;1.93;;;17.60;99.90;;;;;;4955851;28;20483;-70
2022/05/21 10:48:11;;;;;;;3.47;2.10;;;17.90;99.90;;;;;;4955210;28;20495;-72
2022/05/21 10:50:43;;;;;;;2.47;2.23;;;18.00;99.90;;;;;;4954081;28;20535;-71
2022/05/21 10:53:36;;;;;;;6.17;1.57;;;17.90;99.90;;;;;;4954297;29;20468;-70
2022/05/21 10:56:14;;;;;;;1.20;1.20;;;18.00;99.90;;;;;;4954615;28;20560;-71
2022/05/21 10:58:57;;;;;;;1.20;1.20;;;18.20;99.90;;;;;;4954729;29;20464;-72
2022/05/21 11:01:31;;;;;;;1.60;1.60;;;18.40;99.90;;;;;;4939987;28;20484;-72
2022/05/21 11:04:21;;;;;;;1.20;1.20;;;18.60;99.90;;;;;;4964566;28;20467;-71
2022/05/21 11:07:15;;;;;;;1.40;1.30;;;19.00;99.90;;;;;;4951747;28;20495;-71
2022/05/21 11:09:50;;;;;;;1.80;1.70;;;19.10;99.90;;;;;;4946681;28;20557;-69
2022/05/21 11:12:26;;;;;;;2.00;1.53;;;19.10;99.90;;;;;;4953289;28;20941;-70
2022/05/21 11:14:59;;;;;;;5.17;1.63;;;18.80;99.90;;;;;;4953261;28;20469;-71
2022/05/21 11:17:36;;;;;;;1.60;1.40;;;18.50;99.90;;;;;;4960492;28;20492;-70
2022/05/21 11:20:11;;;;;;;1.40;1.40;;;18.30;99.90;;;;;;4960563;28;20467;-70
2022/05/21 11:22:42;;;;;;;2.53;1.67;;;18.20;99.90;;;;;;4958068;28;20519;-70
2022/05/21 11:25:17;;;;;;;1.70;1.60;;;18.00;99.90;;;;;;4957027;28;20487;-71
2022/05/21 11:27:53;;;;;;;1.77;1.67;;;18.00;99.90;;;;;;4953607;28;20480;-70
2022/05/21 11:30:21;;;;;;;1.70;1.70;;;18.00;99.90;;;;;;4951100;29;20501;-70
2022/05/21 11:38:31;;;;;;;2.00;1.90;;;18.30;99.90;;;;;;4934451;29;20544;-69
2022/05/21 11:46:51;;;;;;;1.60;1.60;;;18.30;99.90;;;;;;4947547;28;20850;-69
2022/05/21 11:49:40;;;;;;;1.70;1.60;;;18.10;99.90;;;;;;4952234;28;20475;-69
2022/05/21 11:52:50;;;;;;;2.27;1.50;;;18.00;99.90;;;;;;4948575;28;20460;-69
2022/05/21 11:55:20;;;;;;;2.50;1.50;;;18.30;99.90;;;;;;4961177;28;20456;-69
2022/05/21 11:57:49;;;;;;;2.53;1.60;;;18.40;99.90;;;;;;4937710;28;20527;-69
2022/05/21 12:00:46;;;;;;;2.10;1.20;;;18.40;99.90;;;;;;4954099;28;20975;-70
2022/05/21 12:03:24;;;;;;;1.57;1.43;;;18.30;99.90;;;;;;4940631;28;20496;-70
2022/05/21 12:05:58;;;;;;;1.77;1.70;;;18.40;99.90;;;;;;4965245;28;20495;-71
2022/05/21 12:08:38;;;;;;;1.80;1.70;;;18.50;99.90;;;;;;4956789;28;20461;-71
2022/05/21 12:11:09;;;;;;;4.40;2.13;;;18.40;99.90;;;;;;4952091;28;20954;-70
2022/05/21 12:13:58;;;;;;;1.77;1.30;;;18.20;99.90;;;;;;4953760;28;20504;-70
2022/05/21 12:16:46;;;;;;;1.37;1.20;;;18.10;99.90;;;;;;4954231;28;20484;-70
2022/05/21 12:20:01;;;;;;;2.13;1.27;;;18.20;99.90;;;;;;4954191;28;20515;-70
2022/05/21 12:22:40;;;;;;;2.93;1.10;;;18.30;99.90;;;;;;4962242;28;20481;-71
2022/05/21 12:25:12;;;;;;;4.10;1.27;;;18.30;99.90;;;;;;4956073;28;21029;-70
2022/05/21 12:27:51;;;;;;;1.70;1.60;;;18.40;99.90;;;;;;4953327;28;20487;-71
2022/05/21 12:30:29;;;;;;;5.77;1.53;;;18.70;99.90;;;;;;4946905;28;20560;-71
2022/05/21 12:32:57;;;;;;;3.13;1.80;;;18.90;99.90;;;;;;4952728;28;20485;-70
2022/05/21 12:35:47;;;;;;;1.43;1.07;;;19.00;99.90;;;;;;4952298;29;20813;-69
2022/05/21 12:38:26;;;;;;;4.93;1.57;;;18.90;99.90;;;;;;4947293;28;21292;-69
2022/05/21 12:41:02;;;;;;;1.10;1.10;;;18.80;99.90;;;;;;4952071;28;20460;-69
2022/05/21 12:43:43;;;;;;;3.53;1.57;;;18.80;99.90;;;;;;4952597;28;20489;-70
2022/05/21 12:46:21;;;;;;;1.03;1.03;;;18.60;99.90;;;;;;4951779;28;20481;-69
2022/05/21 12:48:50;;;;;;;2.03;1.10;;;18.40;99.90;;;;;;4952979;28;20461;-70
2022/05/21 12:51:28;;;;;;;2.30;1.23;;;18.20;99.90;;;;;;4952340;28;20993;-69
2022/05/21 12:53:56;;;;;;;5.50;1.83;;;18.00;99.90;;;;;;4952806;28;20503;-69
2022/05/21 12:56:29;;;;;;;1.47;1.37;;;18.00;99.90;;;;;;4952803;28;20571;-69
2022/05/21 12:59:06;;;;;;;1.47;1.20;;;17.90;99.90;;;;;;4952180;28;20465;-69
2022/05/21 13:01:34;;;;;;;1.63;1.20;;;18.00;99.90;;;;;;4951865;28;20510;-69
2022/05/21 13:04:20;;;;;;;1.67;1.53;;;18.20;99.90;;;;;;4952532;28;20528;-70
2022/05/21 13:06:54;;;;;;;2.00;1.40;;;18.40;99.90;;;;;;4952554;28;20519;-69
2022/05/21 13:09:21;;;;;;;2.67;1.20;;;18.60;99.90;;;;;;4945974;28;20472;-69
2022/05/21 13:11:47;;;;;;;3.30;0.70;;;18.60;99.90;;;;;;4951696;28;20503;-70
2022/05/21 13:14:23;;;;;;;2.30;1.00;;;18.60;99.90;;;;;;4951813;28;20468;-69
2022/05/21 13:16:52;;;;;;;1.27;1.17;;;18.70;99.90;;;;;;4951835;28;20579;-69
2022/05/21 13:19:39;;;;;;;1.00;1.00;;;18.80;99.90;;;;;;4952002;28;20542;-70
2022/05/21 13:22:12;;;;;;;2.30;1.00;;;19.00;99.90;;;;;;4952288;28;20485;-70
2022/05/21 13:24:46;;;;;;;1.10;1.00;;;19.10;99.90;;;;;;4951599;28;20468;-70
2022/05/21 13:27:16;;;;;;;2.20;0.67;;;19.30;99.90;;;;;;4963494;28;20510;-70
2022/05/21 13:29:43;;;;;;;1.60;0.87;;;19.40;99.90;;;;;;4950904;28;21296;-69
2022/05/21 13:32:23;;;;;;;2.00;1.47;;;19.50;99.90;;;;;;4952642;28;20464;-70
2022/05/21 13:34:51;;;;;;;4.60;1.03;;;19.60;99.90;;;;;;4951878;28;20461;-69
2022/05/21 13:37:19;;;;;;;1.17;0.90;;;19.80;99.90;;;;;;4955318;28;20496;-69
2022/05/21 13:40:02;;;;;;;0.70;0.70;;;19.90;99.90;;;;;;4955357;28;20464;-69
2022/05/21 13:42:30;;;;;;;1.40;0.90;;;19.80;99.90;;;;;;4955567;28;20989;-70
2022/05/21 13:45:06;;;;;;;2.53;0.80;;;19.40;99.90;;;;;;4955042;28;20470;-69
2022/05/21 13:47:36;;;;;;;1.37;1.10;;;19.30;99.90;;;;;;4956057;28;20579;-69
2022/05/21 13:50:06;;;;;;;1.13;1.00;;;19.40;99.90;;;;;;4955122;28;20468;-69
2022/05/21 13:52:34;;;;;;;3.43;1.00;;;19.50;99.90;;;;;;4955774;28;20693;-69
2022/05/21 13:55:05;;;;;;;0.70;0.70;;;19.30;99.90;;;;;;4955761;28;20472;-69
2022/05/21 13:57:34;;;;;;;2.53;1.13;;;19.20;99.90;;;;;;4951744;28;20512;-69
2022/05/21 14:00:06;;;;;;;2.97;1.00;;;19.20;99.90;;;;;;4954422;28;20468;-69
2022/05/21 14:02:38;;;;;;;1.90;1.00;;;19.00;99.90;;;;;;4955625;28;20506;-69
2022/05/21 14:05:28;;;;;;;1.57;1.20;;;19.00;99.90;;;;;;4955412;28;20492;-70
2022/05/21 14:07:58;;;;;;;1.23;0.93;;;18.90;99.90;;;;;;4955656;28;20464;-69
2022/05/21 14:10:47;;;;;;;1.47;1.37;;;18.80;99.90;;;;;;4954740;28;20543;-70
2022/05/21 14:13:30;;;;;;;1.60;0.70;;;18.70;99.90;;;;;;4952368;28;20969;-69
2022/05/21 14:15:59;;;;;;;2.27;1.13;;;18.80;99.90;;;;;;4954208;28;20992;-69
2022/05/21 14:18:29;;;;;;;1.70;0.90;;;18.90;99.90;;;;;;4955526;28;20556;-69
2022/05/21 14:21:04;;;;;;;2.00;1.57;;;19.00;99.90;;;;;;4954889;28;20465;-69
2022/05/21 14:23:35;;;;;;;1.63;1.20;;;19.00;99.90;;;;;;4954819;28;20488;-69
2022/05/21 14:26:26;;;;;;;3.73;0.80;;;19.00;99.90;;;;;;4955304;28;20511;-69
2022/05/21 14:28:54;;;;;;;2.10;1.20;;;18.80;99.90;;;;;;4955367;28;20485;-68
2022/05/21 14:31:36;;;;;;;2.53;1.10;;;18.70;99.90;;;;;;4960167;28;20468;-69
2022/05/21 14:34:06;;;;;;;2.07;1.00;;;18.60;99.90;;;;;;4954883;28;20527;-69
2022/05/21 14:36:40;;;;;;;1.33;0.80;;;18.50;99.90;;;;;;4955268;28;20496;-69
2022/05/21 14:39:08;;;;;;;1.30;0.60;;;18.60;99.90;;;;;;4955296;28;20570;-69
2022/05/21 14:41:37;;;;;;;2.83;1.20;;;18.80;99.90;;;;;;4954492;29;20559;-70
2022/05/21 14:44:06;;;;;;;3.10;1.20;;;19.00;99.90;;;;;;4954537;28;20547;-70
2022/05/21 14:49:17;;;;;;;2.60;1.00;;;19.00;99.90;;;;;;4954159;29;20452;-70
2022/05/21 14:54:35;;;;;;;2.07;1.10;;;19.00;99.90;;;;;;4954657;29;20479;-70
2022/05/21 14:57:02;;;;;;;3.37;1.40;;;19.00;99.90;;;;;;4954229;28;20488;-70
2022/05/21 14:59:29;;;;;;;1.03;1.03;;;19.00;99.90;;;;;;4953545;28;20625;-70
2022/05/21 15:01:56;;;;;;;1.67;1.50;;;19.00;99.90;;;;;;4953320;28;20626;-69
2022/05/21 15:04:23;;;;;;;1.10;1.00;;;19.10;99.90;;;;;;4953018;28;20483;-70
2022/05/21 15:06:52;;;;;;;1.73;0.73;;;19.10;99.90;;;;;;4954085;28;20491;-69
2022/05/21 15:09:19;;;;;;;1.50;1.40;;;19.00;99.90;;;;;;4937261;28;20469;-69
2022/05/21 15:11:47;;;;;;;2.37;1.10;;;19.00;99.90;;;;;;4939060;29;20468;-69
2022/05/21 15:14:14;;;;;;;1.60;1.00;;;19.30;99.90;;;;;;4953532;28;20537;-70
2022/05/21 15:16:41;;;;;;;1.00;1.00;;;19.70;99.90;;;;;;4953558;28;21021;-70
2022/05/21 15:19:07;;;;;;;1.37;1.00;;;19.90;99.90;;;;;;4952644;28;20552;-69
2022/05/21 15:21:38;;;;;;;2.30;0.87;;;19.70;99.90;;;;;;4953188;28;20464;-69
2022/05/21 15:24:07;;;;;;;1.73;1.07;;;19.40;99.90;;;;;;4954017;28;20496;-70
2022/05/21 15:26:34;;;;;;;1.37;1.17;;;19.20;99.90;;;;;;4953157;28;20915;-70
2022/05/21 15:29:00;;;;;;;2.27;1.37;;;19.20;99.90;;;;;;4953793;28;20513;-70
2022/05/21 15:31:30;;;;;;;1.33;0.80;;;19.40;99.90;;;;;;4947746;28;20954;-70
2022/05/21 15:33:58;;;;;;;0.93;0.80;;;19.40;99.90;;;;;;4956473;28;20468;-71
2022/05/21 15:36:25;;;;;;;1.00;0.83;;;19.40;99.90;;;;;;4956244;28;20492;-70
2022/05/21 15:38:52;;;;;;;0.77;0.77;;;19.30;99.90;;;;;;4953678;28;20464;-69
2022/05/21 15:41:24;;;;;;;2.37;1.27;;;19.20;99.90;;;;;;4952910;28;20843;-70
2022/05/21 15:43:52;;;;;;;2.30;1.30;;;19.20;99.90;;;;;;4952802;28;20901;-70
2022/05/21 15:46:19;;;;;;;1.90;0.93;;;19.10;99.90;;;;;;4952927;28;20573;-69
2022/05/21 15:48:46;;;;;;;3.27;1.20;;;19.00;99.90;;;;;;4944841;28;20548;-69
2022/05/21 15:51:15;;;;;;;1.40;0.80;;;19.00;99.90;;;;;;4950155;29;20464;-70
2022/05/21 15:53:43;;;;;;;1.07;0.93;;;19.00;99.90;;;;;;4951481;28;20980;-70
2022/05/21 15:56:10;;;;;;;1.43;1.23;;;19.10;99.90;;;;;;4935581;29;20509;-70
2022/05/21 15:58:38;;;;;;;0.93;0.93;;;19.00;99.90;;;;;;4948740;28;20465;-69
2022/05/21 16:01:05;;;;;;;1.90;0.63;;;19.20;99.90;;;;;;4952175;28;20532;-69
2022/05/21 16:03:32;;;;;;;3.20;1.23;;;19.20;99.90;;;;;;4954941;28;20488;-70
2022/05/21 16:05:59;;;;;;;2.00;0.60;;;19.20;99.90;;;;;;4957182;28;20484;-70
2022/05/21 16:08:26;;;;;;;1.93;1.00;;;19.10;99.90;;;;;;4949630;28;20525;-70
2022/05/21 16:10:54;;;;;;;0.90;0.90;;;19.10;99.90;;;;;;4953980;28;20491;-69
2022/05/21 16:13:21;;;;;;;1.00;0.90;;;19.10;99.90;;;;;;4943114;28;20466;-69
2022/05/21 16:15:49;;;;;;;2.83;1.10;;;19.10;99.90;;;;;;4937279;29;20480;-69
2022/05/21 16:18:17;;;;;;;1.30;0.47;;;19.00;99.90;;;;;;4985647;23;20492;-68
2022/05/21 16:20:46;;;;;;;0.60;0.60;;;18.80;99.90;;;;;;4970719;28;20508;-67
2022/05/21 16:23:14;;;;;;;0.60;0.60;;;18.80;99.90;;;;;;4968503;28;20495;-68
2022/05/21 16:25:41;;;;;;;0.53;0.53;;;18.80;99.90;;;;;;4978804;28;20463;-68
2022/05/21 16:28:09;;;;;;;1.20;1.20;;;18.60;99.90;;;;;;4984319;28;20478;-68
2022/05/21 16:30:36;;;;;;;1.20;1.00;;;18.50;99.90;;;;;;4982881;28;20858;-68
2022/05/21 16:33:06;;;;;;;1.00;0.93;;;18.40;99.90;;;;;;4991512;28;20458;-68
2022/05/21 16:35:33;;;;;;;5.40;1.17;;;18.40;99.90;;;;;;4990389;28;20562;-68
2022/05/21 16:38:00;;;;;;;1.13;1.03;;;18.50;99.90;;;;;;4994142;28;20569;-69
2022/05/21 16:40:26;;;;;;;1.63;0.73;;;18.40;99.90;;;;;;4990291;28;20470;-67
2022/05/21 16:42:53;;;;;;;2.83;0.80;;;18.20;99.90;;;;;;4983328;28;20538;-68
2022/05/21 16:45:24;;;;;;;2.13;0.80;;;18.10;99.90;;;;;;4990024;28;20562;-69
2022/05/21 16:47:51;;;;;;;1.03;0.90;;;18.00;99.90;;;;;;4990579;28;20539;-68
2022/05/21 16:50:19;;;;;;;0.67;0.67;;;18.10;99.90;;;;;;4990357;28;20463;-69
2022/05/21 16:52:46;;;;;;;4.37;0.80;;;18.20;99.90;;;;;;4990421;28;20490;-69
2022/05/21 16:55:14;;;;;;;2.10;1.00;;;18.30;99.90;;;;;;4991107;28;20898;-68
2022/05/21 16:57:41;;;;;;;3.03;0.67;;;18.20;99.90;;;;;;4989792;28;20840;-68
2022/05/21 17:00:10;;;;;;;3.27;1.00;;;18.20;99.90;;;;;;4989657;28;20524;-68
2022/05/21 17:02:37;;;;;;;3.47;0.90;;;18.10;99.90;;;;;;4991011;28;20459;-68
2022/05/21 17:05:07;;;;;;;1.50;0.90;;;18.10;99.90;;;;;;4990820;28;20463;-68
2022/05/21 17:07:35;;;;;;;1.03;1.03;;;18.20;99.90;;;;;;4990229;28;20483;-68
2022/05/21 17:10:02;;;;;;;2.10;0.90;;;18.20;99.90;;;;;;4990166;28;20494;-69
2022/05/21 17:12:29;;;;;;;0.87;0.67;;;18.20;99.90;;;;;;4994560;28;20455;-68
2022/05/21 17:14:56;;;;;;;2.17;1.00;;;18.10;99.90;;;;;;4993529;28;20463;-68
2022/05/21 17:17:22;;;;;;;0.73;0.70;;;18.10;99.90;;;;;;4994377;28;20507;-69
2022/05/21 17:19:49;;;;;;;2.20;0.73;;;18.10;99.90;;;;;;4989783;28;20482;-68
2022/05/21 17:22:19;;;;;;;2.23;0.60;;;18.00;99.90;;;;;;5002052;28;21086;-69
2022/05/21 17:24:48;;;;;;;0.70;0.70;;;17.90;99.90;;;;;;4975334;28;20498;-68
2022/05/21 17:32:48;;;;;;;0.73;0.73;;;17.70;99.90;;;;;;4997186;28;20457;-69
2022/05/21 17:35:16;;;;;;;1.13;0.60;;;17.60;99.90;;;;;;4994208;28;21083;-68
2022/05/21 17:37:42;;;;;;;2.50;1.00;;;17.60;99.90;;;;;;4995071;28;21061;-67
2022/05/21 17:40:12;;;;;;;1.53;0.80;;;17.40;99.90;;;;;;4974579;28;20460;-68
2022/05/21 17:42:39;;;;;;;1.50;0.80;;;17.40;99.90;;;;;;4979383;28;20552;-68